createdAt,value
2022-11-18T00:02:06.530Z,12.47
2022-11-18T00:04:34.778Z,11.43
2022-11-18T00:07:03.148Z,9.80
2022-11-18T00:09:31.462Z,9.37
2022-11-18T00:12:16.894Z,8.73
2022-11-18T00:14:47.634Z,7.57
2022-11-18T00:17:15.989Z,7.77
2022-11-18T00:19:44.210Z,8.73
2022-11-18T00:22:14.783Z,9.07
2022-11-18T00:24:43.029Z,10.57
2022-11-18T00:27:16.403Z,9.87
2022-11-18T00:29:46.011Z,9.20
2022-11-18T00:32:14.219Z,8.07
2022-11-18T00:34:43.603Z,8.47
2022-11-18T00:37:11.824Z,10.50
2022-11-18T00:39:40.077Z,8.40
2022-11-18T00:42:29.089Z,8.27
2022-11-18T00:44:58.672Z,9.90
2022-11-18T00:47:26.865Z,9.57
2022-11-18T00:49:55.102Z,8.53
2022-11-18T00:52:23.391Z,10.10
2022-11-18T00:54:51.589Z,8.70
2022-11-18T00:57:19.798Z,9.07
2022-11-18T00:59:47.998Z,10.47
2022-11-18T01:02:17.558Z,10.03
2022-11-18T01:04:45.842Z,9.83
2022-11-18T01:07:14.160Z,10.13
2022-11-18T01:09:42.386Z,10.57
2022-11-18T01:12:32.743Z,10.93
2022-11-18T01:15:01.397Z,11.13
2022-11-18T01:17:33.251Z,11.87
2022-11-18T01:20:01.549Z,12.97
2022-11-18T01:22:29.800Z,11.93
2022-11-18T01:24:58.047Z,13.03
2022-11-18T01:27:26.329Z,13.93
2022-11-18T01:29:54.588Z,13.03
2022-11-18T01:32:25.069Z,15.30
2022-11-18T01:34:55.267Z,14.17
2022-11-18T01:37:23.507Z,14.43
2022-11-18T01:39:55.691Z,13.90
2022-11-18T01:42:23.894Z,13.73
2022-11-18T01:45:20.713Z,13.87
2022-11-18T01:47:52.927Z,14.20
2022-11-18T01:50:25.355Z,13.07
2022-11-18T01:52:55.618Z,13.70
2022-11-18T01:55:27.652Z,13.63
2022-11-18T01:58:03.329Z,13.93
2022-11-18T02:00:31.565Z,14.47
2022-11-18T02:03:02.377Z,12.87
2022-11-18T02:05:34.336Z,11.43
2022-11-18T02:08:09.464Z,14.73
2022-11-18T02:10:43.033Z,11.53
2022-11-18T02:13:12.002Z,11.93
2022-11-18T02:15:50.409Z,11.33
2022-11-18T02:18:27.299Z,9.93
2022-11-18T02:21:01.782Z,10.17
2022-11-18T02:24:18.971Z,9.97
2022-11-18T02:27:18.423Z,10.70
2022-11-18T02:29:57.320Z,12.17
2022-11-18T02:32:30.874Z,10.43
2022-11-18T02:35:06.318Z,11.03
2022-11-18T02:37:39.331Z,12.10
2022-11-18T02:40:14.854Z,12.43
2022-11-18T02:42:45.854Z,11.37
2022-11-18T02:45:18.442Z,10.57
2022-11-18T02:47:49.444Z,9.37
2022-11-18T02:50:22.497Z,10.07
2022-11-18T02:52:54.634Z,9.60
2022-11-18T02:56:13.955Z,8.73
2022-11-18T02:58:42.203Z,10.73
2022-11-18T03:01:37.569Z,10.63
2022-11-18T03:04:06.669Z,10.33
2022-11-18T03:06:38.367Z,11.50
2022-11-18T03:09:12.911Z,12.80
2022-11-18T03:11:49.714Z,11.13
2022-11-18T03:14:29.551Z,11.03
2022-11-18T03:17:01.616Z,11.43
2022-11-18T03:19:41.983Z,12.00
2022-11-18T03:22:18.879Z,10.33
2022-11-18T03:24:55.282Z,11.87
2022-11-18T03:27:38.146Z,12.17
2022-11-18T03:30:09.339Z,14.77
2022-11-18T03:32:43.202Z,13.93
2022-11-18T03:35:15.702Z,11.73
2022-11-18T03:37:45.355Z,12.60
2022-11-18T03:40:18.727Z,12.37
2022-11-18T03:42:50.522Z,11.73
2022-11-18T03:45:23.462Z,11.50
2022-11-18T03:47:58.033Z,11.47
2022-11-18T03:50:44.011Z,10.00
2022-11-18T03:53:13.220Z,9.50
2022-11-18T03:55:44.086Z,10.47
2022-11-18T03:58:18.358Z,9.30
2022-11-18T04:00:50.291Z,9.23
2022-11-18T04:03:20.568Z,8.37
2022-11-18T04:05:52.983Z,7.33
2022-11-18T04:08:25.808Z,6.87
2022-11-18T04:11:01.114Z,7.70
2022-11-18T04:13:33.840Z,7.57
2022-11-18T04:16:02.566Z,6.80
2022-11-18T04:18:33.334Z,6.87
2022-11-18T04:21:01.528Z,7.13
2022-11-18T04:23:29.829Z,8.23
2022-11-18T04:25:58.046Z,8.37
2022-11-18T04:28:26.300Z,9.50
2022-11-18T04:30:54.527Z,10.30
2022-11-18T04:33:22.746Z,9.33
2022-11-18T04:35:52.349Z,8.60
2022-11-18T04:38:22.055Z,8.00
2022-11-18T04:40:50.558Z,7.13
2022-11-18T04:43:18.785Z,6.80
2022-11-18T04:45:47.128Z,8.00
2022-11-18T04:48:16.055Z,7.63
2022-11-18T04:50:44.248Z,6.83
2022-11-18T04:53:13.897Z,8.00
2022-11-18T04:55:45.114Z,6.53
2022-11-18T04:58:13.352Z,6.60
2022-11-18T05:01:06.523Z,8.30
2022-11-18T05:03:34.916Z,8.80
2022-11-18T05:06:03.181Z,8.17
2022-11-18T05:08:33.039Z,9.03
2022-11-18T05:11:15.110Z,7.40
2022-11-18T05:13:43.353Z,10.90
2022-11-18T05:16:11.601Z,8.63
2022-11-18T05:18:39.814Z,20.97
2022-11-18T05:21:08.522Z,15.87
2022-11-18T05:23:38.137Z,10.83
2022-11-18T05:26:06.892Z,10.50
2022-11-18T05:28:35.598Z,10.10
2022-11-18T05:31:08.821Z,7.53
2022-11-18T05:33:37.506Z,10.73
2022-11-18T05:36:06.251Z,7.50
2022-11-18T05:38:35.036Z,7.50
2022-11-18T05:41:05.332Z,7.27
2022-11-18T05:43:33.146Z,8.43
2022-11-18T05:46:02.151Z,8.50
2022-11-18T05:48:30.706Z,9.90
2022-11-18T05:50:59.013Z,9.17
2022-11-18T05:53:27.297Z,8.23
2022-11-18T05:56:00.588Z,6.67
2022-11-18T05:58:30.389Z,6.43
2022-11-18T06:01:25.466Z,6.43
2022-11-18T06:03:54.083Z,5.97
2022-11-18T06:06:25.639Z,6.70
2022-11-18T06:09:01.501Z,7.20
2022-11-18T06:11:41.471Z,9.20
2022-11-18T06:14:16.469Z,6.70
2022-11-18T06:16:49.197Z,8.47
2022-11-18T06:19:18.513Z,7.97
2022-11-18T06:21:47.647Z,8.90
2022-11-18T06:24:16.499Z,9.83
2022-11-18T06:26:45.368Z,13.77
2022-11-18T06:29:26.031Z,13.03
2022-11-18T06:31:55.954Z,14.43
2022-11-18T06:34:24.520Z,15.97
2022-11-18T06:36:52.798Z,14.67
2022-11-18T06:39:21.286Z,35.97
2022-11-18T06:41:49.583Z,42.37
2022-11-18T06:44:18.206Z,21.70
2022-11-18T06:46:58.328Z,19.07
2022-11-18T06:49:27.736Z,15.70
2022-11-18T06:51:56.351Z,16.63
2022-11-18T06:54:24.602Z,17.60
2022-11-18T06:56:52.826Z,17.57
2022-11-18T06:59:24.496Z,15.53
2022-11-18T07:01:53.602Z,16.23
2022-11-18T07:04:22.070Z,13.23
2022-11-18T07:06:50.361Z,13.23
2022-11-18T07:09:19.048Z,13.63
2022-11-18T07:11:47.481Z,15.70
2022-11-18T07:14:15.769Z,13.60
2022-11-18T07:16:45.487Z,13.47
2022-11-18T07:19:15.269Z,13.17
2022-11-18T07:21:43.994Z,16.43
2022-11-18T07:24:14.239Z,16.47
2022-11-18T07:26:43.287Z,14.20
2022-11-18T07:29:11.799Z,13.73
2022-11-18T07:31:40.882Z,16.70
2022-11-18T07:34:10.557Z,16.77
2022-11-18T07:36:38.804Z,15.07
2022-11-18T07:39:08.324Z,14.20
2022-11-18T07:41:37.094Z,15.60
2022-11-18T07:44:07.411Z,15.97
2022-11-18T07:46:37.325Z,15.30
2022-11-18T07:49:07.317Z,14.10
2022-11-18T07:51:38.370Z,17.10
2022-11-18T07:54:10.978Z,15.23
2022-11-18T07:56:39.380Z,15.70
2022-11-18T07:59:09.083Z,14.93
2022-11-18T08:01:37.649Z,16.93
2022-11-18T08:04:07.396Z,15.53
2022-11-18T08:06:37.700Z,15.63
2022-11-18T08:09:07.202Z,16.50
2022-11-18T08:11:36.093Z,15.67
2022-11-18T08:14:04.441Z,14.47
2022-11-18T08:16:32.635Z,15.90
2022-11-18T08:19:01.497Z,16.83
2022-11-18T08:21:29.873Z,17.37
2022-11-18T08:24:00.034Z,15.57
2022-11-18T08:26:29.554Z,16.13
2022-11-18T08:28:59.027Z,16.23
2022-11-18T08:31:28.899Z,17.07
2022-11-18T08:33:57.571Z,20.77
2022-11-18T08:36:28.171Z,16.43
2022-11-18T08:38:57.555Z,15.97
2022-11-18T08:41:32.828Z,15.70
2022-11-18T08:44:01.161Z,20.10
2022-11-18T08:46:29.470Z,19.47
2022-11-18T08:48:57.791Z,18.93
2022-11-18T08:51:26.687Z,21.20
2022-11-18T08:54:19.958Z,19.80
2022-11-18T08:56:50.650Z,20.33
2022-11-18T08:59:19.339Z,18.87
2022-11-18T09:01:48.909Z,23.07
2022-11-18T09:04:23.170Z,25.87
2022-11-18T09:06:51.407Z,25.40
2022-11-18T09:09:19.866Z,25.43
2022-11-18T09:11:49.730Z,29.10
2022-11-18T09:17:07.771Z,29.90
2022-11-18T09:19:51.298Z,28.77
2022-11-18T09:22:21.003Z,31.10
2022-11-18T09:24:49.302Z,31.57
2022-11-18T09:27:18.949Z,32.30
2022-11-18T09:29:47.176Z,29.70
2022-11-18T09:32:15.429Z,28.67
2022-11-18T09:34:43.701Z,30.73
2022-11-18T09:37:12.967Z,30.17
2022-11-18T09:39:41.194Z,28.80
2022-11-18T09:42:29.269Z,28.60
2022-11-18T09:45:24.600Z,29.23
2022-11-18T09:47:53.485Z,26.77
2022-11-18T09:53:20.226Z,28.27
2022-11-18T09:55:50.030Z,25.97
2022-11-18T09:58:27.867Z,27.07
2022-11-18T10:00:56.139Z,27.43
2022-11-18T10:03:28.728Z,28.50
2022-11-18T10:06:03.728Z,28.60
2022-11-18T10:08:38.055Z,29.23
2022-11-18T10:11:13.730Z,33.80
2022-11-18T10:13:56.783Z,31.20
2022-11-18T10:16:37.148Z,30.70
2022-11-18T10:19:12.959Z,32.10
2022-11-18T10:21:51.599Z,33.20
2022-11-18T10:24:22.258Z,30.47
2022-11-18T10:26:56.768Z,30.37
2022-11-18T10:29:26.759Z,27.73
2022-11-18T10:32:03.755Z,29.23
2022-11-18T10:34:33.127Z,30.50
2022-11-18T10:37:03.064Z,28.60
2022-11-18T10:39:31.864Z,23.87
2022-11-18T10:42:03.482Z,24.37
2022-11-18T10:44:36.949Z,23.73
2022-11-18T10:47:23.973Z,23.17
2022-11-18T10:49:52.383Z,24.27
2022-11-18T10:52:21.379Z,23.83
2022-11-18T10:55:09.804Z,23.73
2022-11-18T10:57:43.442Z,24.73
2022-11-18T11:00:42.363Z,25.60
2022-11-18T11:03:37.621Z,22.93
2022-11-18T11:06:37.987Z,24.13
2022-11-18T11:09:10.099Z,23.13
2022-11-18T11:11:40.468Z,22.13
2022-11-18T11:14:24.642Z,23.23
2022-11-18T11:17:05.015Z,25.40
2022-11-18T11:19:43.108Z,25.90
2022-11-18T11:22:15.075Z,24.77
2022-11-18T11:24:43.498Z,23.47
2022-11-18T11:30:28.153Z,22.60
2022-11-18T11:33:19.895Z,24.30
2022-11-18T11:36:04.748Z,22.80
2022-11-18T11:38:44.431Z,23.73
2022-11-18T11:41:21.957Z,25.10
2022-11-18T11:44:07.802Z,21.77
2022-11-18T11:46:42.079Z,20.33
2022-11-18T11:49:19.746Z,18.43
2022-11-18T11:51:53.040Z,19.17
2022-11-18T11:54:45.490Z,10.33
2022-11-18T11:57:21.271Z,6.67
2022-11-18T11:59:57.031Z,2.67
2022-11-18T12:02:49.525Z,2.37
2022-11-18T12:05:25.385Z,2.23
2022-11-18T12:07:57.366Z,2.30
2022-11-18T12:10:31.715Z,2.30
2022-11-18T12:13:13.767Z,2.47
2022-11-18T12:16:03.084Z,2.47
2022-11-18T12:18:39.444Z,2.90
2022-11-18T12:21:09.079Z,2.57
2022-11-18T12:23:37.390Z,2.50
2022-11-18T12:26:07.671Z,2.60
2022-11-18T12:28:42.180Z,2.70
2022-11-18T12:31:36.367Z,2.60
2022-11-18T12:34:21.644Z,2.97
2022-11-18T12:36:51.291Z,2.40
2022-11-18T12:39:49.085Z,2.60
2022-11-18T12:42:54.377Z,2.70
2022-11-18T12:45:59.301Z,2.50
2022-11-18T12:48:48.323Z,2.63
2022-11-18T12:51:44.391Z,3.20
2022-11-18T12:54:36.278Z,2.37
2022-11-18T12:57:21.206Z,2.30
2022-11-18T12:59:49.976Z,2.13
2022-11-18T13:02:24.157Z,2.20
2022-11-18T13:08:17.058Z,2.30
2022-11-18T13:11:14.183Z,2.10
2022-11-18T13:13:43.409Z,2.40
2022-11-18T13:17:18.895Z,2.07
2022-11-18T13:19:57.190Z,2.10
2022-11-18T13:25:35.214Z,1.93
2022-11-18T13:28:16.125Z,2.00
2022-11-18T13:30:49.872Z,2.00
2022-11-18T13:33:18.248Z,1.90
2022-11-18T13:35:46.569Z,2.40
2022-11-18T13:38:28.062Z,2.37
2022-11-18T13:41:14.000Z,2.50
2022-11-18T13:43:43.568Z,2.80
2022-11-18T13:46:19.154Z,2.60
2022-11-18T13:48:50.572Z,4.23
2022-11-18T13:51:19.784Z,2.57
2022-11-18T13:53:48.724Z,2.57
2022-11-18T13:56:20.281Z,2.50
2022-11-18T14:01:48.402Z,2.20
2022-11-18T14:04:23.332Z,2.17
2022-11-18T14:06:51.828Z,2.33
2022-11-18T14:09:24.873Z,2.70
2022-11-18T14:12:01.980Z,2.80
2022-11-18T14:14:33.657Z,2.47
2022-11-18T14:17:16.020Z,2.10
2022-11-18T14:19:45.127Z,2.20
2022-11-18T14:22:16.523Z,2.03
2022-11-18T14:24:45.345Z,2.10
2022-11-18T14:27:37.456Z,2.40
2022-11-18T14:30:32.617Z,2.27
2022-11-18T14:33:18.729Z,2.07
2022-11-18T14:35:50.786Z,2.60
2022-11-18T14:38:44.030Z,2.30
2022-11-18T14:41:12.329Z,2.60
2022-11-18T14:43:40.799Z,2.47
2022-11-18T14:46:17.022Z,2.10
2022-11-18T14:48:45.714Z,1.87
2022-11-18T14:51:14.834Z,2.00
2022-11-18T14:53:43.424Z,2.20
2022-11-18T14:56:16.248Z,1.90
2022-11-18T14:58:44.541Z,2.43
2022-11-18T15:01:15.292Z,2.10
2022-11-18T15:03:43.572Z,2.30
2022-11-18T15:06:15.111Z,2.20
2022-11-18T15:08:44.118Z,2.03
2022-11-18T15:11:12.599Z,2.20
2022-11-18T15:13:41.464Z,2.57
2022-11-18T15:16:16.858Z,2.47
2022-11-18T15:18:46.677Z,2.60
2022-11-18T15:21:15.715Z,2.50
2022-11-18T15:23:43.960Z,2.60
2022-11-18T15:26:20.015Z,3.27
2022-11-18T15:28:48.532Z,3.30
2022-11-18T15:31:19.031Z,3.80
2022-11-18T15:33:48.561Z,3.80
2022-11-18T15:36:19.271Z,2.87
2022-11-18T15:38:48.464Z,3.40
2022-11-18T15:41:18.798Z,3.60
2022-11-18T15:43:47.308Z,3.13
2022-11-18T15:46:19.235Z,3.00
2022-11-18T15:48:48.396Z,3.43
2022-11-18T15:51:17.000Z,3.27
2022-11-18T15:53:45.293Z,3.70
2022-11-18T15:56:24.363Z,3.07
2022-11-18T15:58:56.743Z,2.93
2022-11-18T16:01:27.508Z,3.00
2022-11-18T16:03:56.276Z,3.20
2022-11-18T16:06:25.815Z,3.50
2022-11-18T16:09:19.242Z,3.20
2022-11-18T16:12:05.028Z,2.97
2022-11-18T16:14:33.306Z,2.90
2022-11-18T16:17:02.911Z,3.03
2022-11-18T16:19:33.568Z,3.33
2022-11-18T16:22:01.861Z,3.17
2022-11-18T16:24:30.636Z,2.57
2022-11-18T16:27:23.600Z,3.00
2022-11-18T16:29:51.936Z,3.17
2022-11-18T16:32:21.614Z,2.70
2022-11-18T16:34:49.835Z,2.60
2022-11-18T16:37:18.035Z,3.10
2022-11-18T16:39:46.278Z,2.83
2022-11-18T16:42:14.503Z,3.27
2022-11-18T16:44:43.755Z,2.57
2022-11-18T16:47:15.145Z,2.90
2022-11-18T16:49:45.081Z,2.73
2022-11-18T16:52:13.397Z,2.70
2022-11-18T16:54:45.578Z,2.60
2022-11-18T16:57:14.784Z,3.13
2022-11-18T16:59:43.005Z,3.07
2022-11-18T17:02:13.656Z,2.97
2022-11-18T17:04:42.311Z,2.70
2022-11-18T17:07:12.157Z,2.90
2022-11-18T17:09:40.932Z,2.90
2022-11-18T17:12:09.378Z,2.67
2022-11-18T17:14:38.646Z,2.70
2022-11-18T17:17:07.884Z,2.77
2022-11-18T17:19:48.770Z,2.73
2022-11-18T17:22:18.365Z,2.40
2022-11-18T17:24:46.724Z,3.00
2022-11-18T17:27:14.911Z,2.40
2022-11-18T17:29:43.116Z,2.77
2022-11-18T17:32:11.599Z,2.80
2022-11-18T17:34:39.853Z,2.80
2022-11-18T17:37:08.099Z,2.90
2022-11-18T17:39:37.734Z,3.03
2022-11-18T17:42:15.344Z,4.60
2022-11-18T17:44:43.660Z,2.83
2022-11-18T17:47:11.886Z,2.80
2022-11-18T17:49:40.191Z,2.57
2022-11-18T17:52:08.471Z,2.77
2022-11-18T17:54:38.065Z,2.80
2022-11-18T17:57:06.258Z,5.77
2022-11-18T17:59:34.575Z,2.70
2022-11-18T18:02:02.857Z,2.90
2022-11-18T18:04:32.394Z,3.10
2022-11-18T18:07:00.703Z,3.23
2022-11-18T18:09:31.300Z,2.77
2022-11-18T18:12:21.810Z,2.87
2022-11-18T18:14:49.060Z,2.90
2022-11-18T18:17:20.346Z,2.67
2022-11-18T18:19:48.591Z,2.90
2022-11-18T18:22:16.807Z,2.70
2022-11-18T18:24:45.047Z,2.87
2022-11-18T18:27:14.676Z,2.70
2022-11-18T18:29:42.891Z,2.83
2022-11-18T18:32:11.168Z,2.87
2022-11-18T18:34:39.514Z,3.10
2022-11-18T18:37:07.717Z,4.47
2022-11-18T18:39:35.920Z,2.87
2022-11-18T18:42:04.204Z,3.03
2022-11-18T18:44:47.605Z,2.97
2022-11-18T18:47:15.877Z,3.00
2022-11-18T18:49:44.206Z,3.00
2022-11-18T18:52:18.314Z,3.50
2022-11-18T18:54:46.496Z,3.20
2022-11-18T18:57:14.706Z,3.20
2022-11-18T18:59:44.348Z,3.33
2022-11-18T19:02:13.673Z,3.17
2022-11-18T19:04:42.664Z,3.93
2022-11-18T19:07:10.976Z,4.03
2022-11-18T19:09:39.639Z,3.37
2022-11-18T19:12:25.874Z,3.10
2022-11-18T19:14:55.544Z,2.97
2022-11-18T19:17:23.810Z,3.23
2022-11-18T19:20:09.584Z,3.20
2022-11-18T19:22:38.373Z,3.80
2022-11-18T19:25:07.591Z,4.03
2022-11-18T19:27:38.797Z,4.10
2022-11-18T19:30:10.465Z,3.80
2022-11-18T19:32:39.623Z,3.93
2022-11-18T19:35:09.073Z,4.10
2022-11-18T19:37:37.545Z,4.40
2022-11-18T19:40:09.191Z,4.47
2022-11-18T19:42:47.625Z,4.27
2022-11-18T19:45:42.137Z,3.97
2022-11-18T19:48:10.370Z,4.07
2022-11-18T19:50:38.637Z,4.50
2022-11-18T19:53:26.846Z,3.93
2022-11-18T19:55:56.152Z,5.87
2022-11-18T19:58:24.776Z,4.43
2022-11-18T20:01:14.109Z,3.00
2022-11-18T20:03:42.746Z,3.90
2022-11-18T20:06:11.524Z,3.60
2022-11-18T20:08:41.306Z,4.00
2022-11-18T20:11:11.850Z,3.67
2022-11-18T20:13:41.670Z,2.90
2022-11-18T20:16:11.962Z,3.00
2022-11-18T20:18:42.334Z,2.40
2022-11-18T20:21:12.178Z,2.70
2022-11-18T20:23:40.375Z,2.23
2022-11-18T20:26:11.116Z,2.40
2022-11-18T20:28:40.928Z,5.10
2022-11-18T20:31:10.762Z,5.20
2022-11-18T20:33:42.231Z,3.57
2022-11-18T20:36:12.321Z,5.93
2022-11-18T20:38:41.357Z,4.53
2022-11-18T20:41:11.603Z,4.13
2022-11-18T20:43:40.758Z,4.67
2022-11-18T20:46:09.661Z,6.20
2022-11-18T20:48:39.370Z,6.63
2022-11-18T20:51:11.679Z,5.87
2022-11-18T20:53:42.093Z,5.20
2022-11-18T20:56:11.112Z,5.07
2022-11-18T20:58:39.435Z,4.93
2022-11-18T21:01:11.621Z,8.33
2022-11-18T21:03:40.919Z,8.20
2022-11-18T21:06:14.175Z,7.67
2022-11-18T21:08:43.672Z,7.00
2022-11-18T21:11:13.491Z,9.23
2022-11-18T21:13:59.853Z,3.73
2022-11-18T21:16:29.001Z,11.00
2022-11-18T21:18:57.738Z,8.63
2022-11-18T21:21:45.535Z,9.20
2022-11-18T21:24:15.269Z,6.37
2022-11-18T21:26:43.969Z,4.10
2022-11-18T21:29:13.845Z,3.60
2022-11-18T21:31:42.725Z,5.03
2022-11-18T21:34:21.663Z,5.37
2022-11-18T21:36:54.550Z,6.30
2022-11-18T21:39:23.798Z,6.20
2022-11-18T21:41:56.283Z,7.53
2022-11-18T21:44:25.784Z,14.63
2022-11-18T21:46:54.118Z,17.77
2022-11-18T21:49:22.874Z,13.57
2022-11-18T21:51:52.671Z,7.07
2022-11-18T21:54:20.960Z,5.27
2022-11-18T21:56:49.400Z,4.63
2022-11-18T21:59:17.903Z,4.50
2022-11-18T22:01:46.336Z,4.80
2022-11-18T22:04:34.519Z,4.70
2022-11-18T22:07:05.254Z,4.93
2022-11-18T22:09:36.762Z,4.43
2022-11-18T22:12:07.873Z,5.70
2022-11-18T22:14:36.251Z,5.03
2022-11-18T22:17:04.873Z,3.97
2022-11-18T22:19:33.074Z,2.60
2022-11-18T22:22:01.515Z,2.30
2022-11-18T22:24:31.181Z,2.50
2022-11-18T22:26:59.400Z,2.73
2022-11-18T22:29:27.674Z,2.37
2022-11-18T22:31:56.060Z,1.90
2022-11-18T22:34:24.332Z,1.90
2022-11-18T22:36:52.528Z,2.40
2022-11-18T22:39:21.209Z,4.00
2022-11-18T22:42:08.331Z,4.57
2022-11-18T22:44:36.593Z,3.37
2022-11-18T22:47:04.858Z,4.10
2022-11-18T22:49:33.097Z,4.17
2022-11-18T22:52:01.320Z,4.77
2022-11-18T22:54:44.765Z,4.07
2022-11-18T22:57:14.367Z,1.93
2022-11-18T22:59:42.624Z,2.00
2022-11-18T23:02:10.867Z,2.93
2022-11-18T23:05:03.873Z,2.97
2022-11-18T23:07:32.191Z,2.60
2022-11-18T23:10:01.198Z,2.67
2022-11-18T23:12:48.479Z,2.73
2022-11-18T23:15:16.896Z,3.53
2022-11-18T23:17:45.111Z,3.30
2022-11-18T23:20:13.435Z,2.70
2022-11-18T23:22:41.603Z,2.50
2022-11-18T23:25:10.004Z,2.20
2022-11-18T23:27:39.594Z,2.23
2022-11-18T23:30:09.074Z,2.30
2022-11-18T23:32:37.244Z,2.37
2022-11-18T23:35:06.031Z,2.37
2022-11-18T23:37:34.300Z,2.50
2022-11-18T23:40:02.541Z,2.20
2022-11-18T23:42:30.799Z,2.10
2022-11-18T23:45:05.029Z,1.70
2022-11-18T23:47:33.612Z,1.43
2022-11-18T23:50:01.816Z,1.50
2022-11-18T23:52:30.013Z,1.40
2022-11-18T23:54:59.477Z,1.30
2022-11-18T23:57:27.975Z,1.20
2022-11-18T23:59:56.176Z,1.03
